createdAt,value
2022-11-10T00:04:02.246Z,3.69
2022-11-10T00:19:04.221Z,3.76
2022-11-10T00:34:07.030Z,3.93
2022-11-10T00:49:08.898Z,4.01
2022-11-10T01:04:10.782Z,4.06
2022-11-10T01:19:12.898Z,4.00
2022-11-10T01:34:14.831Z,3.88
2022-11-10T01:49:23.726Z,3.82
2022-11-10T02:04:27.418Z,3.86
2022-11-10T02:19:29.801Z,3.88
2022-11-10T02:34:32.787Z,3.84
2022-11-10T02:49:34.836Z,3.75
2022-11-10T03:04:36.744Z,3.45
2022-11-10T03:19:38.769Z,3.17
2022-11-10T03:34:40.653Z,2.95
2022-11-10T03:49:42.877Z,2.86
2022-11-10T04:05:03.346Z,2.81
2022-11-10T04:20:05.957Z,3.04
2022-11-10T04:35:08.361Z,3.02
2022-11-10T04:50:10.379Z,2.97
2022-11-10T05:05:12.299Z,3.15
2022-11-10T05:20:14.317Z,3.36
2022-11-10T05:35:16.459Z,4.60
2022-11-10T05:50:19.055Z,6.39
2022-11-10T06:05:20.979Z,8.10
2022-11-10T06:20:24.274Z,9.20
2022-11-10T06:35:29.306Z,10.04
2022-11-10T06:50:31.919Z,10.76
2022-11-10T07:05:35.908Z,11.88
2022-11-10T07:20:38.338Z,12.49
2022-11-10T07:35:41.088Z,13.10
2022-11-10T07:50:43.064Z,13.74
2022-11-10T08:05:45.540Z,14.73
2022-11-10T08:20:48.983Z,15.13
2022-11-10T08:35:52.360Z,15.54
2022-11-10T08:50:54.657Z,15.90
2022-11-10T09:05:58.691Z,15.56
2022-11-10T09:21:03.288Z,16.33
2022-11-10T09:36:07.158Z,14.37
2022-11-10T09:51:12.886Z,13.74
2022-11-10T10:06:16.467Z,14.75
2022-11-10T10:21:44.328Z,13.49
2022-11-10T10:36:46.698Z,13.74
2022-11-10T10:51:50.897Z,12.89
2022-11-10T11:07:01.859Z,14.24
2022-11-10T11:22:24.521Z,15.58
2022-11-10T11:37:47.883Z,16.01
2022-11-10T11:53:05.369Z,18.12
2022-11-10T12:08:29.035Z,18.85
2022-11-10T12:24:03.851Z,15.92
2022-11-10T12:39:18.483Z,12.38
2022-11-10T12:54:23.781Z,11.35
2022-11-10T13:09:29.744Z,10.57
2022-11-10T13:24:40.063Z,10.30
2022-11-10T13:39:42.211Z,10.35
2022-11-10T13:55:31.768Z,10.11
2022-11-10T14:10:50.209Z,9.84
2022-11-10T14:26:05.134Z,9.63
2022-11-10T14:41:15.291Z,9.44
2022-11-10T14:56:35.269Z,9.34
2022-11-10T15:12:05.780Z,9.20
2022-11-10T15:27:17.556Z,9.15
2022-11-10T15:42:22.115Z,9.07
2022-11-10T15:57:24.019Z,9.09
2022-11-10T16:12:27.468Z,8.99
2022-11-10T16:27:29.527Z,8.91
2022-11-10T16:42:31.421Z,8.79
2022-11-10T16:57:38.745Z,8.80
2022-11-10T17:12:42.063Z,8.62
2022-11-10T17:27:44.219Z,8.48
2022-11-10T17:42:46.637Z,8.36
2022-11-10T17:57:48.899Z,8.06
2022-11-10T18:12:50.760Z,7.75
2022-11-10T18:27:52.825Z,7.63
2022-11-10T18:43:02.999Z,7.59
2022-11-10T18:58:07.925Z,7.55
2022-11-10T19:13:09.917Z,7.51
2022-11-10T19:28:12.085Z,7.66
2022-11-10T19:43:14.314Z,7.94
2022-11-10T19:58:16.279Z,7.94
2022-11-10T20:13:18.168Z,7.93
2022-11-10T20:28:20.246Z,8.00
2022-11-10T20:43:22.495Z,7.99
2022-11-10T20:58:24.666Z,7.96
2022-11-10T21:13:27.479Z,8.09
2022-11-10T21:28:31.857Z,7.93
2022-11-10T21:43:34.046Z,7.91
2022-11-10T21:58:36.849Z,7.91
2022-11-10T22:13:57.128Z,8.05
2022-11-10T22:28:59.184Z,7.91
2022-11-10T22:44:05.416Z,7.91
2022-11-10T22:59:07.496Z,7.87
2022-11-10T23:14:10.371Z,7.81
2022-11-10T23:29:12.399Z,7.78
2022-11-10T23:44:14.272Z,7.83
2022-11-10T23:59:16.174Z,8.04
